sensor_id;sensor_type;location;lat;lon;timestamp;P1;durP1;ratioP1;P2;durP2;ratioP2
23617;SDS011;18207;32.078;34.818;2022-09-20T00:02:17;0.60;;;0.60;;
23617;SDS011;18207;32.078;34.818;2022-09-20T00:04:49;0.50;;;0.50;;
23617;SDS011;18207;32.078;34.818;2022-09-20T00:07:19;0.73;;;0.73;;
23617;SDS011;18207;32.078;34.818;2022-09-20T00:09:51;0.80;;;0.80;;
23617;SDS011;18207;32.078;34.818;2022-09-20T00:12:23;0.88;;;0.85;;
23617;SDS011;18207;32.078;34.818;2022-09-20T00:14:54;1.10;;;1.02;;
23617;SDS011;18207;32.078;34.818;2022-09-20T00:17:24;0.63;;;0.63;;
23617;SDS011;18207;32.078;34.818;2022-09-20T00:19:56;0.77;;;0.77;;
23617;SDS011;18207;32.078;34.818;2022-09-20T00:22:26;0.82;;;0.82;;
23617;SDS011;18207;32.078;34.818;2022-09-20T00:24:59;0.90;;;0.90;;
23617;SDS011;18207;32.078;34.818;2022-09-20T00:27:30;0.95;;;0.95;;
23617;SDS011;18207;32.078;34.818;2022-09-20T00:30:01;1.10;;;1.10;;
23617;SDS011;18207;32.078;34.818;2022-09-20T00:32:32;1.10;;;1.10;;
23617;SDS011;18207;32.078;34.818;2022-09-20T00:35:03;1.42;;;1.20;;
23617;SDS011;18207;32.078;34.818;2022-09-20T00:37:38;1.20;;;1.20;;
23617;SDS011;18207;32.078;34.818;2022-09-20T00:40:13;1.45;;;1.15;;
23617;SDS011;18207;32.078;34.818;2022-09-20T00:42:48;1.38;;;1.27;;
23617;SDS011;18207;32.078;34.818;2022-09-20T00:45:20;1.23;;;1.23;;
23617;SDS011;18207;32.078;34.818;2022-09-20T00:47:54;1.70;;;1.60;;
23617;SDS011;18207;32.078;34.818;2022-09-20T00:50:32;2.13;;;1.60;;
23617;SDS011;18207;32.078;34.818;2022-09-20T00:53:10;2.30;;;2.10;;
23617;SDS011;18207;32.078;34.818;2022-09-20T00:55:51;2.35;;;2.15;;
23617;SDS011;18207;32.078;34.818;2022-09-20T00:58:28;2.10;;;2.00;;
23617;SDS011;18207;32.078;34.818;2022-09-20T01:01:05;2.70;;;2.50;;
23617;SDS011;18207;32.078;34.818;2022-09-20T01:03:37;2.70;;;2.50;;
23617;SDS011;18207;32.078;34.818;2022-09-20T01:06:12;2.88;;;2.67;;
23617;SDS011;18207;32.078;34.818;2022-09-20T01:08:47;2.78;;;2.47;;
23617;SDS011;18207;32.078;34.818;2022-09-20T01:11:24;2.85;;;2.63;;
23617;SDS011;18207;32.078;34.818;2022-09-20T01:13:56;3.25;;;2.95;;
23617;SDS011;18207;32.078;34.818;2022-09-20T01:16:26;2.90;;;2.70;;
23617;SDS011;18207;32.078;34.818;2022-09-20T01:18:59;2.95;;;2.58;;
23617;SDS011;18207;32.078;34.818;2022-09-20T01:21:41;3.28;;;2.97;;
23617;SDS011;18207;32.078;34.818;2022-09-20T01:24:13;2.85;;;2.65;;
23617;SDS011;18207;32.078;34.818;2022-09-20T01:27:01;3.22;;;2.95;;
23617;SDS011;18207;32.078;34.818;2022-09-20T01:29:54;3.00;;;2.80;;
23617;SDS011;18207;32.078;34.818;2022-09-20T01:32:45;2.97;;;2.78;;
23617;SDS011;18207;32.078;34.818;2022-09-20T01:35:40;3.08;;;2.78;;
23617;SDS011;18207;32.078;34.818;2022-09-20T01:38:20;3.13;;;2.67;;
23617;SDS011;18207;32.078;34.818;2022-09-20T01:41:04;3.00;;;2.65;;
23617;SDS011;18207;32.078;34.818;2022-09-20T01:43:41;2.88;;;2.67;;
23617;SDS011;18207;32.078;34.818;2022-09-20T01:49:16;2.92;;;2.70;;
23617;SDS011;18207;32.078;34.818;2022-09-20T01:52:14;3.30;;;3.00;;
23617;SDS011;18207;32.078;34.818;2022-09-20T01:58:37;3.13;;;2.92;;
23617;SDS011;18207;32.078;34.818;2022-09-20T02:09:02;2.60;;;2.40;;
23617;SDS011;18207;32.078;34.818;2022-09-20T02:12:09;2.35;;;2.20;;
23617;SDS011;18207;32.078;34.818;2022-09-20T02:15:14;2.03;;;1.92;;
23617;SDS011;18207;32.078;34.818;2022-09-20T02:18:16;2.28;;;2.10;;
23617;SDS011;18207;32.078;34.818;2022-09-20T02:21:08;2.20;;;1.98;;
23617;SDS011;18207;32.078;34.818;2022-09-20T02:23:58;1.90;;;1.80;;
23617;SDS011;18207;32.078;34.818;2022-09-20T02:26:48;1.80;;;1.70;;
23617;SDS011;18207;32.078;34.818;2022-09-20T02:29:39;1.67;;;1.58;;
23617;SDS011;18207;32.078;34.818;2022-09-20T02:32:28;1.90;;;1.80;;
23617;SDS011;18207;32.078;34.818;2022-09-20T02:35:29;1.70;;;1.60;;
23617;SDS011;18207;32.078;34.818;2022-09-20T02:38:20;1.70;;;1.60;;
23617;SDS011;18207;32.078;34.818;2022-09-20T02:44:34;1.58;;;1.48;;
23617;SDS011;18207;32.078;34.818;2022-09-20T02:47:18;1.77;;;1.67;;
23617;SDS011;18207;32.078;34.818;2022-09-20T02:50:06;1.60;;;1.50;;
23617;SDS011;18207;32.078;34.818;2022-09-20T02:52:55;1.63;;;1.52;;
23617;SDS011;18207;32.078;34.818;2022-09-20T02:55:46;1.77;;;1.67;;
23617;SDS011;18207;32.078;34.818;2022-09-20T02:58:35;1.70;;;1.60;;
23617;SDS011;18207;32.078;34.818;2022-09-20T03:01:27;1.98;;;1.70;;
23617;SDS011;18207;32.078;34.818;2022-09-20T03:04:13;1.70;;;1.60;;
23617;SDS011;18207;32.078;34.818;2022-09-20T03:07:02;1.70;;;1.60;;
23617;SDS011;18207;32.078;34.818;2022-09-20T03:09:46;1.67;;;1.58;;
23617;SDS011;18207;32.078;34.818;2022-09-20T03:12:36;1.73;;;1.63;;
23617;SDS011;18207;32.078;34.818;2022-09-20T03:15:29;1.60;;;1.50;;
23617;SDS011;18207;32.078;34.818;2022-09-20T03:18:13;1.80;;;1.70;;
23617;SDS011;18207;32.078;34.818;2022-09-20T03:20:50;1.77;;;1.67;;
23617;SDS011;18207;32.078;34.818;2022-09-20T03:23:37;1.58;;;1.48;;
23617;SDS011;18207;32.078;34.818;2022-09-20T03:26:26;1.60;;;1.50;;
23617;SDS011;18207;32.078;34.818;2022-09-20T03:29:13;2.08;;;1.95;;
23617;SDS011;18207;32.078;34.818;2022-09-20T03:32:06;1.60;;;1.50;;
23617;SDS011;18207;32.078;34.818;2022-09-20T03:34:58;2.20;;;2.00;;
23617;SDS011;18207;32.078;34.818;2022-09-20T03:37:57;1.95;;;1.85;;
23617;SDS011;18207;32.078;34.818;2022-09-20T03:41:03;2.08;;;1.92;;
23617;SDS011;18207;32.078;34.818;2022-09-20T03:44:00;2.30;;;2.00;;
23617;SDS011;18207;32.078;34.818;2022-09-20T03:46:59;2.10;;;2.00;;
23617;SDS011;18207;32.078;34.818;2022-09-20T03:49:52;1.80;;;1.70;;
23617;SDS011;18207;32.078;34.818;2022-09-20T03:53:03;1.98;;;1.88;;
23617;SDS011;18207;32.078;34.818;2022-09-20T04:09:27;1.50;;;1.40;;
23617;SDS011;18207;32.078;34.818;2022-09-20T04:12:32;1.67;;;1.50;;
23617;SDS011;18207;32.078;34.818;2022-09-20T04:15:26;1.90;;;1.80;;
23617;SDS011;18207;32.078;34.818;2022-09-20T04:18:11;1.63;;;1.52;;
23617;SDS011;18207;32.078;34.818;2022-09-20T04:20:56;1.58;;;1.50;;
23617;SDS011;18207;32.078;34.818;2022-09-20T04:23:42;1.50;;;1.40;;
23617;SDS011;18207;32.078;34.818;2022-09-20T04:26:24;1.98;;;1.40;;
23617;SDS011;18207;32.078;34.818;2022-09-20T04:28:59;1.35;;;1.27;;
23617;SDS011;18207;32.078;34.818;2022-09-20T04:31:46;1.33;;;1.33;;
23617;SDS011;18207;32.078;34.818;2022-09-20T04:34:29;1.73;;;1.60;;
23617;SDS011;18207;32.078;34.818;2022-09-20T04:37:29;1.58;;;1.48;;
23617;SDS011;18207;32.078;34.818;2022-09-20T04:43:21;1.30;;;1.20;;
23617;SDS011;18207;32.078;34.818;2022-09-20T04:57:02;1.27;;;1.17;;
23617;SDS011;18207;32.078;34.818;2022-09-20T05:00:20;1.48;;;1.38;;
23617;SDS011;18207;32.078;34.818;2022-09-20T05:03:11;1.67;;;1.42;;
23617;SDS011;18207;32.078;34.818;2022-09-20T05:09:40;1.50;;;1.40;;
23617;SDS011;18207;32.078;34.818;2022-09-20T05:12:54;1.50;;;1.40;;
23617;SDS011;18207;32.078;34.818;2022-09-20T05:15:48;1.60;;;1.50;;
23617;SDS011;18207;32.078;34.818;2022-09-20T05:18:41;1.45;;;1.38;;
23617;SDS011;18207;32.078;34.818;2022-09-20T05:25:03;1.88;;;1.20;;
23617;SDS011;18207;32.078;34.818;2022-09-20T05:28:11;1.20;;;1.20;;
23617;SDS011;18207;32.078;34.818;2022-09-20T05:30:51;1.45;;;1.35;;
23617;SDS011;18207;32.078;34.818;2022-09-20T05:33:28;1.20;;;1.20;;
23617;SDS011;18207;32.078;34.818;2022-09-20T05:36:10;1.42;;;1.33;;
23617;SDS011;18207;32.078;34.818;2022-09-20T05:38:53;1.20;;;1.20;;
23617;SDS011;18207;32.078;34.818;2022-09-20T05:41:35;0.98;;;0.98;;
23617;SDS011;18207;32.078;34.818;2022-09-20T05:44:23;1.27;;;1.17;;
23617;SDS011;18207;32.078;34.818;2022-09-20T05:47:02;1.00;;;1.00;;
23617;SDS011;18207;32.078;34.818;2022-09-20T05:49:49;1.00;;;1.00;;
23617;SDS011;18207;32.078;34.818;2022-09-20T05:52:36;1.00;;;1.00;;
23617;SDS011;18207;32.078;34.818;2022-09-20T05:55:37;1.30;;;1.20;;
23617;SDS011;18207;32.078;34.818;2022-09-20T05:58:27;0.90;;;0.90;;
23617;SDS011;18207;32.078;34.818;2022-09-20T06:01:17;0.90;;;0.90;;
23617;SDS011;18207;32.078;34.818;2022-09-20T06:03:57;1.00;;;1.00;;
23617;SDS011;18207;32.078;34.818;2022-09-20T06:06:46;1.10;;;1.10;;
23617;SDS011;18207;32.078;34.818;2022-09-20T06:09:33;0.95;;;0.90;;
23617;SDS011;18207;32.078;34.818;2022-09-20T06:12:34;0.90;;;0.90;;
23617;SDS011;18207;32.078;34.818;2022-09-20T06:15:20;1.08;;;0.90;;
23617;SDS011;18207;32.078;34.818;2022-09-20T06:18:05;1.70;;;0.98;;
23617;SDS011;18207;32.078;34.818;2022-09-20T06:20:53;1.00;;;1.00;;
23617;SDS011;18207;32.078;34.818;2022-09-20T06:23:37;1.02;;;1.02;;
23617;SDS011;18207;32.078;34.818;2022-09-20T06:26:09;0.82;;;0.80;;
23617;SDS011;18207;32.078;34.818;2022-09-20T06:28:49;0.82;;;0.82;;
23617;SDS011;18207;32.078;34.818;2022-09-20T06:31:25;0.90;;;0.90;;
23617;SDS011;18207;32.078;34.818;2022-09-20T06:33:59;0.73;;;0.73;;
23617;SDS011;18207;32.078;34.818;2022-09-20T06:36:36;1.38;;;0.80;;
23617;SDS011;18207;32.078;34.818;2022-09-20T06:39:35;0.82;;;0.77;;
23617;SDS011;18207;32.078;34.818;2022-09-20T06:42:30;0.73;;;0.73;;
23617;SDS011;18207;32.078;34.818;2022-09-20T06:45:02;0.73;;;0.73;;
23617;SDS011;18207;32.078;34.818;2022-09-20T06:47:34;0.50;;;0.50;;
23617;SDS011;18207;32.078;34.818;2022-09-20T06:50:09;0.73;;;0.73;;
23617;SDS011;18207;32.078;34.818;2022-09-20T06:52:44;0.70;;;0.70;;
23617;SDS011;18207;32.078;34.818;2022-09-20T06:55:15;0.88;;;0.88;;
23617;SDS011;18207;32.078;34.818;2022-09-20T06:57:55;0.93;;;0.93;;
23617;SDS011;18207;32.078;34.818;2022-09-20T07:00:26;0.90;;;0.80;;
23617;SDS011;18207;32.078;34.818;2022-09-20T07:02:58;1.00;;;1.00;;
23617;SDS011;18207;32.078;34.818;2022-09-20T07:05:30;1.38;;;1.10;;
23617;SDS011;18207;32.078;34.818;2022-09-20T07:08:01;1.98;;;1.02;;
23617;SDS011;18207;32.078;34.818;2022-09-20T07:10:31;0.63;;;0.63;;
23617;SDS011;18207;32.078;34.818;2022-09-20T07:13:02;0.68;;;0.68;;
23617;SDS011;18207;32.078;34.818;2022-09-20T07:15:33;0.73;;;0.73;;
23617;SDS011;18207;32.078;34.818;2022-09-20T07:18:04;1.08;;;1.00;;
23617;SDS011;18207;32.078;34.818;2022-09-20T07:20:37;1.10;;;0.93;;
23617;SDS011;18207;32.078;34.818;2022-09-20T07:23:08;0.88;;;0.82;;
23617;SDS011;18207;32.078;34.818;2022-09-20T07:25:41;1.08;;;1.08;;
23617;SDS011;18207;32.078;34.818;2022-09-20T07:28:12;0.90;;;0.90;;
23617;SDS011;18207;32.078;34.818;2022-09-20T07:30:42;0.70;;;0.70;;
23617;SDS011;18207;32.078;34.818;2022-09-20T07:33:14;0.70;;;0.70;;
23617;SDS011;18207;32.078;34.818;2022-09-20T07:35:49;1.05;;;0.98;;
23617;SDS011;18207;32.078;34.818;2022-09-20T07:38:21;1.00;;;1.00;;
23617;SDS011;18207;32.078;34.818;2022-09-20T07:40:55;0.63;;;0.63;;
23617;SDS011;18207;32.078;34.818;2022-09-20T07:43:28;0.82;;;0.82;;
23617;SDS011;18207;32.078;34.818;2022-09-20T07:46:00;0.80;;;0.80;;
23617;SDS011;18207;32.078;34.818;2022-09-20T07:48:31;0.88;;;0.88;;
23617;SDS011;18207;32.078;34.818;2022-09-20T07:51:06;0.98;;;0.93;;
23617;SDS011;18207;32.078;34.818;2022-09-20T07:53:39;0.98;;;0.95;;
23617;SDS011;18207;32.078;34.818;2022-09-20T07:56:12;0.82;;;0.82;;
23617;SDS011;18207;32.078;34.818;2022-09-20T07:58:45;3.60;;;1.17;;
23617;SDS011;18207;32.078;34.818;2022-09-20T08:01:18;0.75;;;0.75;;
23617;SDS011;18207;32.078;34.818;2022-09-20T08:03:49;0.70;;;0.70;;
23617;SDS011;18207;32.078;34.818;2022-09-20T08:06:22;1.45;;;0.90;;
23617;SDS011;18207;32.078;34.818;2022-09-20T08:08:54;0.73;;;0.73;;
23617;SDS011;18207;32.078;34.818;2022-09-20T08:11:25;0.60;;;0.60;;
23617;SDS011;18207;32.078;34.818;2022-09-20T08:13:57;0.70;;;0.70;;
23617;SDS011;18207;32.078;34.818;2022-09-20T08:16:35;0.50;;;0.50;;
23617;SDS011;18207;32.078;34.818;2022-09-20T08:19:08;0.75;;;0.75;;
23617;SDS011;18207;32.078;34.818;2022-09-20T08:21:46;0.63;;;0.63;;
23617;SDS011;18207;32.078;34.818;2022-09-20T08:24:19;0.57;;;0.57;;
23617;SDS011;18207;32.078;34.818;2022-09-20T08:26:52;0.70;;;0.65;;
23617;SDS011;18207;32.078;34.818;2022-09-20T08:29:22;1.00;;;0.90;;
23617;SDS011;18207;32.078;34.818;2022-09-20T08:31:53;0.80;;;0.80;;
23617;SDS011;18207;32.078;34.818;2022-09-20T08:34:27;1.10;;;0.88;;
23617;SDS011;18207;32.078;34.818;2022-09-20T08:36:59;1.42;;;0.93;;
23617;SDS011;18207;32.078;34.818;2022-09-20T08:39:30;0.80;;;0.80;;
23617;SDS011;18207;32.078;34.818;2022-09-20T08:42:23;1.40;;;0.65;;
23617;SDS011;18207;32.078;34.818;2022-09-20T08:45:03;0.88;;;0.88;;
23617;SDS011;18207;32.078;34.818;2022-09-20T08:47:59;1.08;;;0.93;;
23617;SDS011;18207;32.078;34.818;2022-09-20T08:50:40;0.60;;;0.60;;
23617;SDS011;18207;32.078;34.818;2022-09-20T08:53:13;0.68;;;0.68;;
23617;SDS011;18207;32.078;34.818;2022-09-20T08:55:47;0.98;;;0.82;;
23617;SDS011;18207;32.078;34.818;2022-09-20T08:58:17;0.77;;;0.70;;
23617;SDS011;18207;32.078;34.818;2022-09-20T09:00:48;0.60;;;0.60;;
23617;SDS011;18207;32.078;34.818;2022-09-20T09:03:19;0.80;;;0.80;;
23617;SDS011;18207;32.078;34.818;2022-09-20T09:05:50;0.52;;;0.52;;
23617;SDS011;18207;32.078;34.818;2022-09-20T09:08:26;1.45;;;0.68;;
23617;SDS011;18207;32.078;34.818;2022-09-20T09:11:07;0.77;;;0.77;;
23617;SDS011;18207;32.078;34.818;2022-09-20T09:13:43;0.60;;;0.60;;
23617;SDS011;18207;32.078;34.818;2022-09-20T09:16:22;0.85;;;0.80;;
23617;SDS011;18207;32.078;34.818;2022-09-20T09:22:00;0.52;;;0.52;;
23617;SDS011;18207;32.078;34.818;2022-09-20T09:24:36;0.60;;;0.60;;
23617;SDS011;18207;32.078;34.818;2022-09-20T09:27:07;0.70;;;0.70;;
23617;SDS011;18207;32.078;34.818;2022-09-20T09:29:48;0.73;;;0.70;;
23617;SDS011;18207;32.078;34.818;2022-09-20T09:32:22;0.60;;;0.60;;
23617;SDS011;18207;32.078;34.818;2022-09-20T09:34:55;0.68;;;0.68;;
23617;SDS011;18207;32.078;34.818;2022-09-20T09:37:52;0.75;;;0.75;;
23617;SDS011;18207;32.078;34.818;2022-09-20T09:40:26;0.77;;;0.77;;
23617;SDS011;18207;32.078;34.818;2022-09-20T09:43:00;0.70;;;0.70;;
23617;SDS011;18207;32.078;34.818;2022-09-20T09:45:33;0.68;;;0.68;;
23617;SDS011;18207;32.078;34.818;2022-09-20T09:48:16;0.68;;;0.60;;
23617;SDS011;18207;32.078;34.818;2022-09-20T09:51:06;0.68;;;0.68;;
23617;SDS011;18207;32.078;34.818;2022-09-20T09:53:41;0.73;;;0.70;;
23617;SDS011;18207;32.078;34.818;2022-09-20T09:56:21;1.13;;;0.70;;
23617;SDS011;18207;32.078;34.818;2022-09-20T09:59:26;0.77;;;0.40;;
23617;SDS011;18207;32.078;34.818;2022-09-20T10:02:42;0.65;;;0.65;;
23617;SDS011;18207;32.078;34.818;2022-09-20T10:05:39;0.65;;;0.65;;
23617;SDS011;18207;32.078;34.818;2022-09-20T10:08:24;0.40;;;0.40;;
23617;SDS011;18207;32.078;34.818;2022-09-20T10:11:08;0.63;;;0.63;;
23617;SDS011;18207;32.078;34.818;2022-09-20T10:14:01;0.50;;;0.50;;
23617;SDS011;18207;32.078;34.818;2022-09-20T10:16:54;0.50;;;0.50;;
23617;SDS011;18207;32.078;34.818;2022-09-20T10:19:42;0.60;;;0.45;;
23617;SDS011;18207;32.078;34.818;2022-09-20T10:22:32;0.60;;;0.60;;
23617;SDS011;18207;32.078;34.818;2022-09-20T10:25:38;0.82;;;0.77;;
23617;SDS011;18207;32.078;34.818;2022-09-20T10:28:24;0.73;;;0.70;;
23617;SDS011;18207;32.078;34.818;2022-09-20T10:31:17;0.50;;;0.50;;
23617;SDS011;18207;32.078;34.818;2022-09-20T10:34:18;0.75;;;0.65;;
23617;SDS011;18207;32.078;34.818;2022-09-20T10:37:16;0.65;;;0.65;;
23617;SDS011;18207;32.078;34.818;2022-09-20T10:40:03;0.85;;;0.60;;
23617;SDS011;18207;32.078;34.818;2022-09-20T10:43:16;0.52;;;0.52;;
23617;SDS011;18207;32.078;34.818;2022-09-20T10:46:13;0.45;;;0.45;;
23617;SDS011;18207;32.078;34.818;2022-09-20T10:49:01;0.50;;;0.50;;
23617;SDS011;18207;32.078;34.818;2022-09-20T10:51:53;1.65;;;0.60;;
23617;SDS011;18207;32.078;34.818;2022-09-20T10:54:49;0.52;;;0.50;;
23617;SDS011;18207;32.078;34.818;2022-09-20T10:57:46;0.73;;;0.60;;
23617;SDS011;18207;32.078;34.818;2022-09-20T11:00:55;0.82;;;0.70;;
23617;SDS011;18207;32.078;34.818;2022-09-20T11:03:51;0.30;;;0.30;;
23617;SDS011;18207;32.078;34.818;2022-09-20T11:06:59;0.45;;;0.45;;
23617;SDS011;18207;32.078;34.818;2022-09-20T11:09:47;0.50;;;0.50;;
23617;SDS011;18207;32.078;34.818;2022-09-20T11:12:26;0.47;;;0.47;;
23617;SDS011;18207;32.078;34.818;2022-09-20T11:15:13;0.50;;;0.50;;
23617;SDS011;18207;32.078;34.818;2022-09-20T11:17:55;1.50;;;0.70;;
23617;SDS011;18207;32.078;34.818;2022-09-20T11:20:36;0.75;;;0.57;;
23617;SDS011;18207;32.078;34.818;2022-09-20T11:23:15;0.93;;;0.70;;
23617;SDS011;18207;32.078;34.818;2022-09-20T11:25:51;0.75;;;0.75;;
23617;SDS011;18207;32.078;34.818;2022-09-20T11:28:29;1.30;;;0.60;;
23617;SDS011;18207;32.078;34.818;2022-09-20T11:31:06;1.00;;;0.63;;
23617;SDS011;18207;32.078;34.818;2022-09-20T11:33:49;0.65;;;0.63;;
23617;SDS011;18207;32.078;34.818;2022-09-20T11:36:29;0.50;;;0.50;;
23617;SDS011;18207;32.078;34.818;2022-09-20T11:39:09;0.90;;;0.77;;
23617;SDS011;18207;32.078;34.818;2022-09-20T11:41:49;0.55;;;0.55;;
23617;SDS011;18207;32.078;34.818;2022-09-20T11:44:26;0.88;;;0.50;;
23617;SDS011;18207;32.078;34.818;2022-09-20T11:47:10;0.65;;;0.50;;
23617;SDS011;18207;32.078;34.818;2022-09-20T11:56:57;0.63;;;0.40;;
23617;SDS011;18207;32.078;34.818;2022-09-20T11:59:29;0.85;;;0.55;;
23617;SDS011;18207;32.078;34.818;2022-09-20T12:02:11;0.95;;;0.70;;
23617;SDS011;18207;32.078;34.818;2022-09-20T12:04:51;0.73;;;0.70;;
23617;SDS011;18207;32.078;34.818;2022-09-20T12:07:22;0.45;;;0.43;;
23617;SDS011;18207;32.078;34.818;2022-09-20T12:10:04;0.40;;;0.40;;
23617;SDS011;18207;32.078;34.818;2022-09-20T12:12:56;0.45;;;0.45;;
23617;SDS011;18207;32.078;34.818;2022-09-20T12:15:30;1.05;;;0.77;;
23617;SDS011;18207;32.078;34.818;2022-09-20T12:18:27;0.50;;;0.50;;
23617;SDS011;18207;32.078;34.818;2022-09-20T12:21:17;0.52;;;0.45;;
23617;SDS011;18207;32.078;34.818;2022-09-20T12:26:52;0.73;;;0.70;;
23617;SDS011;18207;32.078;34.818;2022-09-20T12:38:59;0.68;;;0.35;;
23617;SDS011;18207;32.078;34.818;2022-09-20T12:41:45;0.65;;;0.60;;
23617;SDS011;18207;32.078;34.818;2022-09-20T12:44:22;0.52;;;0.52;;
23617;SDS011;18207;32.078;34.818;2022-09-20T12:47:03;0.35;;;0.35;;
23617;SDS011;18207;32.078;34.818;2022-09-20T12:49:50;0.43;;;0.43;;
23617;SDS011;18207;32.078;34.818;2022-09-20T12:52:51;0.47;;;0.47;;
23617;SDS011;18207;32.078;34.818;2022-09-20T12:55:40;0.50;;;0.50;;
23617;SDS011;18207;32.078;34.818;2022-09-20T12:58:24;0.73;;;0.60;;
23617;SDS011;18207;32.078;34.818;2022-09-20T13:07:35;0.60;;;0.60;;
23617;SDS011;18207;32.078;34.818;2022-09-20T13:10:23;0.20;;;0.20;;
23617;SDS011;18207;32.078;34.818;2022-09-20T13:13:03;0.65;;;0.55;;
23617;SDS011;18207;32.078;34.818;2022-09-20T13:16:02;0.47;;;0.47;;
23617;SDS011;18207;32.078;34.818;2022-09-20T13:18:35;0.38;;;0.32;;
23617;SDS011;18207;32.078;34.818;2022-09-20T13:21:10;0.60;;;0.60;;
23617;SDS011;18207;32.078;34.818;2022-09-20T13:23:43;0.70;;;0.50;;
23617;SDS011;18207;32.078;34.818;2022-09-20T13:26:24;1.15;;;0.60;;
23617;SDS011;18207;32.078;34.818;2022-09-20T13:29:01;1.17;;;0.63;;
23617;SDS011;18207;32.078;34.818;2022-09-20T13:31:36;1.23;;;0.60;;
23617;SDS011;18207;32.078;34.818;2022-09-20T13:34:14;0.45;;;0.45;;
23617;SDS011;18207;32.078;34.818;2022-09-20T13:36:54;1.02;;;0.60;;
23617;SDS011;18207;32.078;34.818;2022-09-20T13:39:28;0.47;;;0.47;;
23617;SDS011;18207;32.078;34.818;2022-09-20T13:42:04;0.82;;;0.60;;
23617;SDS011;18207;32.078;34.818;2022-09-20T13:44:46;0.30;;;0.30;;
23617;SDS011;18207;32.078;34.818;2022-09-20T13:47:21;0.65;;;0.40;;
23617;SDS011;18207;32.078;34.818;2022-09-20T13:50:00;0.50;;;0.50;;
23617;SDS011;18207;32.078;34.818;2022-09-20T13:52:47;0.50;;;0.50;;
23617;SDS011;18207;32.078;34.818;2022-09-20T13:55:21;0.50;;;0.50;;
23617;SDS011;18207;32.078;34.818;2022-09-20T13:58:01;1.20;;;0.40;;
23617;SDS011;18207;32.078;34.818;2022-09-20T14:00:36;0.50;;;0.50;;
23617;SDS011;18207;32.078;34.818;2022-09-20T14:03:28;0.82;;;0.63;;
23617;SDS011;18207;32.078;34.818;2022-09-20T14:06:04;1.00;;;0.90;;
23617;SDS011;18207;32.078;34.818;2022-09-20T14:08:44;1.13;;;0.68;;
23617;SDS011;18207;32.078;34.818;2022-09-20T14:11:20;0.60;;;0.50;;
23617;SDS011;18207;32.078;34.818;2022-09-20T14:13:54;0.93;;;0.57;;
23617;SDS011;18207;32.078;34.818;2022-09-20T14:16:28;0.65;;;0.65;;
23617;SDS011;18207;32.078;34.818;2022-09-20T14:19:02;0.43;;;0.43;;
23617;SDS011;18207;32.078;34.818;2022-09-20T14:21:35;0.35;;;0.35;;
23617;SDS011;18207;32.078;34.818;2022-09-20T14:24:20;0.70;;;0.52;;
23617;SDS011;18207;32.078;34.818;2022-09-20T14:27:05;0.52;;;0.50;;
23617;SDS011;18207;32.078;34.818;2022-09-20T14:29:46;0.95;;;0.50;;
23617;SDS011;18207;32.078;34.818;2022-09-20T14:32:38;1.65;;;0.80;;
23617;SDS011;18207;32.078;34.818;2022-09-20T14:35:19;0.40;;;0.40;;
23617;SDS011;18207;32.078;34.818;2022-09-20T14:37:53;0.40;;;0.40;;
23617;SDS011;18207;32.078;34.818;2022-09-20T14:40:30;0.47;;;0.47;;
23617;SDS011;18207;32.078;34.818;2022-09-20T14:43:19;0.40;;;0.32;;
23617;SDS011;18207;32.078;34.818;2022-09-20T14:45:59;0.50;;;0.50;;
23617;SDS011;18207;32.078;34.818;2022-09-20T14:48:34;0.57;;;0.57;;
23617;SDS011;18207;32.078;34.818;2022-09-20T14:51:08;0.47;;;0.40;;
23617;SDS011;18207;32.078;34.818;2022-09-20T14:53:52;0.65;;;0.60;;
23617;SDS011;18207;32.078;34.818;2022-09-20T14:56:53;1.85;;;0.57;;
23617;SDS011;18207;32.078;34.818;2022-09-20T14:59:26;0.75;;;0.60;;
23617;SDS011;18207;32.078;34.818;2022-09-20T15:02:09;0.88;;;0.60;;
23617;SDS011;18207;32.078;34.818;2022-09-20T15:04:50;0.75;;;0.60;;
23617;SDS011;18207;32.078;34.818;2022-09-20T15:07:28;0.75;;;0.52;;
23617;SDS011;18207;32.078;34.818;2022-09-20T15:10:00;0.70;;;0.70;;
23617;SDS011;18207;32.078;34.818;2022-09-20T15:12:33;0.65;;;0.60;;
23617;SDS011;18207;32.078;34.818;2022-09-20T15:15:04;0.73;;;0.50;;
23617;SDS011;18207;32.078;34.818;2022-09-20T15:17:40;0.28;;;0.28;;
23617;SDS011;18207;32.078;34.818;2022-09-20T15:20:12;0.77;;;0.57;;
23617;SDS011;18207;32.078;34.818;2022-09-20T15:22:50;0.55;;;0.55;;
23617;SDS011;18207;32.078;34.818;2022-09-20T15:25:24;0.82;;;0.65;;
23617;SDS011;18207;32.078;34.818;2022-09-20T15:27:57;0.52;;;0.43;;
23617;SDS011;18207;32.078;34.818;2022-09-20T15:30:30;0.77;;;0.60;;
23617;SDS011;18207;32.078;34.818;2022-09-20T15:33:08;0.43;;;0.43;;
23617;SDS011;18207;32.078;34.818;2022-09-20T15:35:40;0.77;;;0.40;;
23617;SDS011;18207;32.078;34.818;2022-09-20T15:38:12;0.85;;;0.65;;
23617;SDS011;18207;32.078;34.818;2022-09-20T15:40:45;0.60;;;0.50;;
23617;SDS011;18207;32.078;34.818;2022-09-20T15:43:19;0.50;;;0.50;;
23617;SDS011;18207;32.078;34.818;2022-09-20T15:45:54;1.23;;;0.73;;
23617;SDS011;18207;32.078;34.818;2022-09-20T15:48:29;0.77;;;0.55;;
23617;SDS011;18207;32.078;34.818;2022-09-20T15:51:01;0.60;;;0.60;;
23617;SDS011;18207;32.078;34.818;2022-09-20T15:53:34;0.40;;;0.40;;
23617;SDS011;18207;32.078;34.818;2022-09-20T15:56:14;1.23;;;0.65;;
23617;SDS011;18207;32.078;34.818;2022-09-20T15:58:51;0.60;;;0.60;;
23617;SDS011;18207;32.078;34.818;2022-09-20T16:01:25;0.65;;;0.60;;
23617;SDS011;18207;32.078;34.818;2022-09-20T16:03:58;1.25;;;0.85;;
23617;SDS011;18207;32.078;34.818;2022-09-20T16:06:34;0.65;;;0.50;;
23617;SDS011;18207;32.078;34.818;2022-09-20T16:09:06;0.85;;;0.60;;
23617;SDS011;18207;32.078;34.818;2022-09-20T16:11:38;1.35;;;0.75;;
23617;SDS011;18207;32.078;34.818;2022-09-20T16:14:12;1.02;;;0.70;;
23617;SDS011;18207;32.078;34.818;2022-09-20T16:16:43;0.68;;;0.68;;
23617;SDS011;18207;32.078;34.818;2022-09-20T16:19:13;0.52;;;0.52;;
23617;SDS011;18207;32.078;34.818;2022-09-20T16:21:47;0.40;;;0.40;;
23617;SDS011;18207;32.078;34.818;2022-09-20T16:24:25;0.50;;;0.50;;
23617;SDS011;18207;32.078;34.818;2022-09-20T16:26:57;0.68;;;0.50;;
23617;SDS011;18207;32.078;34.818;2022-09-20T16:29:32;0.60;;;0.55;;
23617;SDS011;18207;32.078;34.818;2022-09-20T16:32:03;0.93;;;0.47;;
23617;SDS011;18207;32.078;34.818;2022-09-20T16:34:50;0.57;;;0.57;;
23617;SDS011;18207;32.078;34.818;2022-09-20T16:37:24;0.55;;;0.55;;
23617;SDS011;18207;32.078;34.818;2022-09-20T16:39:58;1.52;;;0.60;;
23617;SDS011;18207;32.078;34.818;2022-09-20T16:42:30;0.60;;;0.60;;
23617;SDS011;18207;32.078;34.818;2022-09-20T16:45:03;0.75;;;0.73;;
23617;SDS011;18207;32.078;34.818;2022-09-20T16:47:34;1.27;;;0.45;;
23617;SDS011;18207;32.078;34.818;2022-09-20T16:50:07;0.45;;;0.45;;
23617;SDS011;18207;32.078;34.818;2022-09-20T16:52:38;0.57;;;0.57;;
23617;SDS011;18207;32.078;34.818;2022-09-20T16:55:09;0.60;;;0.50;;
23617;SDS011;18207;32.078;34.818;2022-09-20T16:57:39;0.70;;;0.70;;
23617;SDS011;18207;32.078;34.818;2022-09-20T17:00:13;1.83;;;0.47;;
23617;SDS011;18207;32.078;34.818;2022-09-20T17:02:47;0.60;;;0.60;;
23617;SDS011;18207;32.078;34.818;2022-09-20T17:05:18;0.65;;;0.45;;
23617;SDS011;18207;32.078;34.818;2022-09-20T17:07:49;0.50;;;0.50;;
23617;SDS011;18207;32.078;34.818;2022-09-20T17:10:20;0.50;;;0.50;;
23617;SDS011;18207;32.078;34.818;2022-09-20T17:12:54;0.80;;;0.80;;
23617;SDS011;18207;32.078;34.818;2022-09-20T17:15:28;0.70;;;0.70;;
23617;SDS011;18207;32.078;34.818;2022-09-20T17:17:59;0.55;;;0.52;;